Terminal Aerodrome Forecast
Issued by NWS Louisville, KY

Home | Current Version | Previous Version | Text Only | Print | Product List | Glossary On
Versions: 1 2 3 4 5 6 7 8 9 10 11 12 13
047
FTUS43 KLMK 231135
TAFLEX
TAF
KLEX 231135Z 2312/2412 VRB03KT 4SM BR FEW250
      TEMPO 2312/2313 2SM BR
     FM231300 06006KT P6SM SKC=

USA.gov is the U.S. government's official web portal to all federal, state and local government web resources and services.